Orlando International Airport
KMCO : now visible

Airfield :











YOU CAN JOIN US ON...

 
LOGIN :

Register | Disclaimer

   EN    FR    IT 

 









Legend :    VFR   Marginal VFR   IFR   Intensive IFR   Very Intensive IFR
Visi :
Ceiling :
>= 8 km
>= 3000ft
5 to 8 km
1000 to 3000 ft
1500m to 5 km
500 to 1000 ft
800 to 1500m
200 to 500 ft
< 800m
< 200 ft
Symbols :   Thunderstorms  Fog  Heavy snow  Heavy precipitations  Wind > 20 kt






- Airport Elevation : 96 ft
- IATA code : MCO


KMCO - Orlando International

CURRENT METAR :
  • 130353Z 00000KT 10SM FEW030 FEW050 BKN170 27/24 A3005 RMK AO2 SLP174 T02720244

EXPIRED METARs :
  • 130253Z 00000KT 10SM FEW030 SCT050 OVC170 27/24 A3004 RMK AO2 SLP171 60000 T02720239 51009
  • 130153Z 00000KT 10SM BKN150 BKN220 27/23 A3004 RMK AO2 RAE27 SLP170 P0000 T02720233

TAF KMCO
Valid from the 13 at 03:00 until the 14 at 06:00 UTC


130254Z 1303/1406 00000KT P6SM SCT150 BKN250
FM131400 19006KT P6SM SCT030 SCT250
FM131830 19010KT P6SM VCTS SCT040CB SCT120 BKN200
TEMPO 1319/1322 3SM TSRA BKN030CB BKN060
FM140100 15004KT P6SM FEW040 SCT100 BKN250
KZMA FIR / North America



MET'MAP, your aeronautical weather chart ! - Copyright ORBIFLY December 2007 - Disclaimer

ORBIFLY MET'MAP TEAM :

Programming & Development : Alexandra Zaïnal
Concept & original design : Baudouin d'Aumeries
Assistance for programming : Marc-Olivier Méhu
Technical & hardware support : Manuel Goepfert

Contact : metmap@orbifly.com




SOURCES & CREDITS :

   NOAA       Earth
Advisory